sensor_id;sensor_type;location;lat;lon;timestamp;P1;durP1;ratioP1;P2;durP2;ratioP2
75096;SDS011;63684;47.964;11.186;2023-07-22T00:00:20;7.83;;;5.07;;
75096;SDS011;63684;47.964;11.186;2023-07-22T00:02:48;6.27;;;4.83;;
75096;SDS011;63684;47.964;11.186;2023-07-22T00:05:14;7.37;;;4.83;;
75096;SDS011;63684;47.964;11.186;2023-07-22T00:07:39;6.63;;;4.57;;
75096;SDS011;63684;47.964;11.186;2023-07-22T00:10:05;5.33;;;4.83;;
75096;SDS011;63684;47.964;11.186;2023-07-22T00:12:33;7.00;;;4.43;;
75096;SDS011;63684;47.964;11.186;2023-07-22T00:14:59;7.17;;;4.77;;
75096;SDS011;63684;47.964;11.186;2023-07-22T00:17:25;7.30;;;5.00;;
75096;SDS011;63684;47.964;11.186;2023-07-22T00:19:50;9.00;;;5.03;;
75096;SDS011;63684;47.964;11.186;2023-07-22T00:22:16;5.93;;;4.80;;
75096;SDS011;63684;47.964;11.186;2023-07-22T00:24:42;6.27;;;4.40;;
75096;SDS011;63684;47.964;11.186;2023-07-22T00:27:07;6.67;;;4.63;;
75096;SDS011;63684;47.964;11.186;2023-07-22T00:29:34;6.67;;;4.57;;
75096;SDS011;63684;47.964;11.186;2023-07-22T00:32:00;4.67;;;3.80;;
75096;SDS011;63684;47.964;11.186;2023-07-22T00:34:25;4.57;;;4.00;;
75096;SDS011;63684;47.964;11.186;2023-07-22T00:36:51;7.33;;;4.37;;
75096;SDS011;63684;47.964;11.186;2023-07-22T00:39:17;7.03;;;4.67;;
75096;SDS011;63684;47.964;11.186;2023-07-22T00:41:43;5.30;;;4.80;;
75096;SDS011;63684;47.964;11.186;2023-07-22T00:44:10;5.57;;;4.67;;
75096;SDS011;63684;47.964;11.186;2023-07-22T00:46:37;9.60;;;4.60;;
75096;SDS011;63684;47.964;11.186;2023-07-22T00:49:04;5.00;;;4.40;;
75096;SDS011;63684;47.964;11.186;2023-07-22T00:51:31;5.03;;;4.60;;
75096;SDS011;63684;47.964;11.186;2023-07-22T00:53:57;7.83;;;3.90;;
75096;SDS011;63684;47.964;11.186;2023-07-22T00:56:22;7.10;;;4.37;;
75096;SDS011;63684;47.964;11.186;2023-07-22T00:58:48;6.70;;;4.77;;
75096;SDS011;63684;47.964;11.186;2023-07-22T01:01:14;4.43;;;4.00;;
75096;SDS011;63684;47.964;11.186;2023-07-22T01:03:39;6.17;;;3.87;;
75096;SDS011;63684;47.964;11.186;2023-07-22T01:06:06;5.13;;;4.33;;
75096;SDS011;63684;47.964;11.186;2023-07-22T01:08:32;6.83;;;4.23;;
75096;SDS011;63684;47.964;11.186;2023-07-22T01:10:57;4.30;;;3.90;;
75096;SDS011;63684;47.964;11.186;2023-07-22T01:13:24;5.73;;;4.37;;
75096;SDS011;63684;47.964;11.186;2023-07-22T01:15:50;4.83;;;4.07;;
75096;SDS011;63684;47.964;11.186;2023-07-22T01:18:16;5.73;;;3.90;;
75096;SDS011;63684;47.964;11.186;2023-07-22T01:20:42;4.10;;;3.70;;
75096;SDS011;63684;47.964;11.186;2023-07-22T01:23:09;4.70;;;4.30;;
75096;SDS011;63684;47.964;11.186;2023-07-22T01:25:35;8.53;;;3.93;;
75096;SDS011;63684;47.964;11.186;2023-07-22T01:28:01;4.63;;;3.60;;
75096;SDS011;63684;47.964;11.186;2023-07-22T01:30:27;8.00;;;4.53;;
75096;SDS011;63684;47.964;11.186;2023-07-22T01:32:53;4.30;;;3.90;;
75096;SDS011;63684;47.964;11.186;2023-07-22T01:35:19;5.70;;;4.00;;
75096;SDS011;63684;47.964;11.186;2023-07-22T01:37:45;6.73;;;4.03;;
75096;SDS011;63684;47.964;11.186;2023-07-22T01:40:11;4.70;;;4.20;;
75096;SDS011;63684;47.964;11.186;2023-07-22T01:42:40;8.03;;;3.83;;
75096;SDS011;63684;47.964;11.186;2023-07-22T01:45:07;4.83;;;4.00;;
75096;SDS011;63684;47.964;11.186;2023-07-22T01:47:36;4.43;;;4.03;;
75096;SDS011;63684;47.964;11.186;2023-07-22T01:50:03;6.60;;;3.83;;
75096;SDS011;63684;47.964;11.186;2023-07-22T01:52:31;6.40;;;3.83;;
75096;SDS011;63684;47.964;11.186;2023-07-22T01:54:57;4.43;;;4.03;;
75096;SDS011;63684;47.964;11.186;2023-07-22T01:57:23;4.20;;;3.80;;
75096;SDS011;63684;47.964;11.186;2023-07-22T01:59:49;7.27;;;3.80;;
75096;SDS011;63684;47.964;11.186;2023-07-22T02:02:15;5.73;;;4.00;;
75096;SDS011;63684;47.964;11.186;2023-07-22T02:04:41;6.17;;;3.83;;
75096;SDS011;63684;47.964;11.186;2023-07-22T02:07:07;4.83;;;3.53;;
75096;SDS011;63684;47.964;11.186;2023-07-22T02:09:34;4.87;;;3.63;;
75096;SDS011;63684;47.964;11.186;2023-07-22T02:12:00;5.13;;;3.70;;
75096;SDS011;63684;47.964;11.186;2023-07-22T02:14:28;5.20;;;4.33;;
75096;SDS011;63684;47.964;11.186;2023-07-22T02:16:54;4.80;;;3.90;;
75096;SDS011;63684;47.964;11.186;2023-07-22T02:19:19;5.03;;;3.63;;
75096;SDS011;63684;47.964;11.186;2023-07-22T02:21:45;6.60;;;4.40;;
75096;SDS011;63684;47.964;11.186;2023-07-22T02:24:12;5.70;;;3.97;;
75096;SDS011;63684;47.964;11.186;2023-07-22T02:26:40;5.27;;;3.90;;
75096;SDS011;63684;47.964;11.186;2023-07-22T02:29:05;4.50;;;3.67;;
75096;SDS011;63684;47.964;11.186;2023-07-22T02:31:33;5.10;;;3.60;;
75096;SDS011;63684;47.964;11.186;2023-07-22T02:34:00;5.63;;;3.80;;
75096;SDS011;63684;47.964;11.186;2023-07-22T02:36:27;4.77;;;3.90;;
75096;SDS011;63684;47.964;11.186;2023-07-22T02:38:53;6.03;;;4.37;;
75096;SDS011;63684;47.964;11.186;2023-07-22T02:41:19;4.43;;;3.77;;
75096;SDS011;63684;47.964;11.186;2023-07-22T02:43:46;5.70;;;3.97;;
75096;SDS011;63684;47.964;11.186;2023-07-22T02:46:12;4.07;;;3.60;;
75096;SDS011;63684;47.964;11.186;2023-07-22T02:48:38;4.53;;;3.43;;
75096;SDS011;63684;47.964;11.186;2023-07-22T02:51:05;5.20;;;3.73;;
75096;SDS011;63684;47.964;11.186;2023-07-22T02:53:36;4.93;;;3.33;;
75096;SDS011;63684;47.964;11.186;2023-07-22T02:56:02;10.33;;;3.43;;
75096;SDS011;63684;47.964;11.186;2023-07-22T02:58:28;3.53;;;3.23;;
75096;SDS011;63684;47.964;11.186;2023-07-22T03:00:53;6.63;;;3.73;;
75096;SDS011;63684;47.964;11.186;2023-07-22T03:03:19;4.77;;;3.87;;
75096;SDS011;63684;47.964;11.186;2023-07-22T03:05:44;3.77;;;3.37;;
75096;SDS011;63684;47.964;11.186;2023-07-22T03:08:10;9.00;;;3.70;;
75096;SDS011;63684;47.964;11.186;2023-07-22T03:10:36;7.40;;;4.00;;
75096;SDS011;63684;47.964;11.186;2023-07-22T03:13:02;5.47;;;3.73;;
75096;SDS011;63684;47.964;11.186;2023-07-22T03:15:28;10.40;;;4.07;;
75096;SDS011;63684;47.964;11.186;2023-07-22T03:17:54;7.60;;;4.00;;
75096;SDS011;63684;47.964;11.186;2023-07-22T03:20:21;7.47;;;3.87;;
75096;SDS011;63684;47.964;11.186;2023-07-22T03:22:49;6.60;;;3.40;;
75096;SDS011;63684;47.964;11.186;2023-07-22T03:25:16;6.40;;;3.60;;
75096;SDS011;63684;47.964;11.186;2023-07-22T03:27:45;4.50;;;3.73;;
75096;SDS011;63684;47.964;11.186;2023-07-22T03:30:13;6.67;;;3.50;;
75096;SDS011;63684;47.964;11.186;2023-07-22T03:32:41;5.70;;;3.60;;
75096;SDS011;63684;47.964;11.186;2023-07-22T03:35:08;7.37;;;3.73;;
75096;SDS011;63684;47.964;11.186;2023-07-22T03:37:36;6.73;;;3.73;;
75096;SDS011;63684;47.964;11.186;2023-07-22T03:40:05;3.97;;;3.57;;
75096;SDS011;63684;47.964;11.186;2023-07-22T03:42:52;4.60;;;3.43;;
75096;SDS011;63684;47.964;11.186;2023-07-22T03:45:19;8.03;;;3.50;;
75096;SDS011;63684;47.964;11.186;2023-07-22T03:47:46;4.20;;;3.80;;
75096;SDS011;63684;47.964;11.186;2023-07-22T03:50:12;3.70;;;3.23;;
75096;SDS011;63684;47.964;11.186;2023-07-22T03:52:39;4.30;;;3.83;;
75096;SDS011;63684;47.964;11.186;2023-07-22T03:55:05;6.27;;;3.70;;
75096;SDS011;63684;47.964;11.186;2023-07-22T03:57:31;4.83;;;3.27;;
75096;SDS011;63684;47.964;11.186;2023-07-22T03:59:57;4.07;;;3.17;;
75096;SDS011;63684;47.964;11.186;2023-07-22T04:02:24;3.63;;;3.30;;
75096;SDS011;63684;47.964;11.186;2023-07-22T04:04:50;3.53;;;3.10;;
75096;SDS011;63684;47.964;11.186;2023-07-22T04:07:17;3.90;;;3.10;;
75096;SDS011;63684;47.964;11.186;2023-07-22T04:09:43;4.50;;;3.40;;
75096;SDS011;63684;47.964;11.186;2023-07-22T04:12:10;5.13;;;3.37;;
75096;SDS011;63684;47.964;11.186;2023-07-22T04:14:35;3.40;;;3.10;;
75096;SDS011;63684;47.964;11.186;2023-07-22T04:17:01;3.53;;;2.90;;
75096;SDS011;63684;47.964;11.186;2023-07-22T04:19:30;4.33;;;2.20;;
75096;SDS011;63684;47.964;11.186;2023-07-22T04:21:56;2.80;;;2.60;;
75096;SDS011;63684;47.964;11.186;2023-07-22T04:24:22;5.57;;;2.40;;
75096;SDS011;63684;47.964;11.186;2023-07-22T04:26:48;4.40;;;2.43;;
75096;SDS011;63684;47.964;11.186;2023-07-22T04:29:14;2.90;;;2.03;;
75096;SDS011;63684;47.964;11.186;2023-07-22T04:31:40;5.37;;;2.50;;
75096;SDS011;63684;47.964;11.186;2023-07-22T04:34:06;4.30;;;2.47;;
75096;SDS011;63684;47.964;11.186;2023-07-22T04:36:32;2.20;;;2.00;;
75096;SDS011;63684;47.964;11.186;2023-07-22T04:38:58;3.27;;;2.47;;
75096;SDS011;63684;47.964;11.186;2023-07-22T04:41:24;2.60;;;2.10;;
75096;SDS011;63684;47.964;11.186;2023-07-22T04:43:50;2.20;;;2.07;;
75096;SDS011;63684;47.964;11.186;2023-07-22T04:46:16;3.27;;;2.70;;
75096;SDS011;63684;47.964;11.186;2023-07-22T04:48:42;5.13;;;2.73;;
75096;SDS011;63684;47.964;11.186;2023-07-22T04:51:07;3.67;;;2.03;;
75096;SDS011;63684;47.964;11.186;2023-07-22T04:53:33;4.60;;;2.50;;
75096;SDS011;63684;47.964;11.186;2023-07-22T04:55:59;2.60;;;2.40;;
75096;SDS011;63684;47.964;11.186;2023-07-22T04:58:24;3.13;;;2.27;;
75096;SDS011;63684;47.964;11.186;2023-07-22T05:00:50;2.67;;;2.10;;
75096;SDS011;63684;47.964;11.186;2023-07-22T05:03:16;5.03;;;2.70;;
75096;SDS011;63684;47.964;11.186;2023-07-22T05:05:43;3.50;;;2.37;;
75096;SDS011;63684;47.964;11.186;2023-07-22T05:08:08;4.80;;;2.67;;
75096;SDS011;63684;47.964;11.186;2023-07-22T05:10:36;3.10;;;2.53;;
75096;SDS011;63684;47.964;11.186;2023-07-22T05:13:01;3.67;;;2.40;;
75096;SDS011;63684;47.964;11.186;2023-07-22T05:15:27;5.43;;;2.77;;
75096;SDS011;63684;47.964;11.186;2023-07-22T05:17:52;3.00;;;2.27;;
75096;SDS011;63684;47.964;11.186;2023-07-22T05:20:18;2.97;;;2.30;;
75096;SDS011;63684;47.964;11.186;2023-07-22T05:22:43;2.77;;;2.20;;
75096;SDS011;63684;47.964;11.186;2023-07-22T05:25:09;3.60;;;2.40;;
75096;SDS011;63684;47.964;11.186;2023-07-22T05:27:35;3.33;;;2.33;;
75096;SDS011;63684;47.964;11.186;2023-07-22T05:30:02;2.63;;;2.37;;
75096;SDS011;63684;47.964;11.186;2023-07-22T05:32:29;2.47;;;2.27;;
75096;SDS011;63684;47.964;11.186;2023-07-22T05:34:55;3.67;;;2.33;;
75096;SDS011;63684;47.964;11.186;2023-07-22T05:37:21;4.37;;;2.30;;
75096;SDS011;63684;47.964;11.186;2023-07-22T05:39:48;3.90;;;2.33;;
75096;SDS011;63684;47.964;11.186;2023-07-22T05:42:14;5.30;;;2.00;;
75096;SDS011;63684;47.964;11.186;2023-07-22T05:44:39;4.90;;;2.30;;
75096;SDS011;63684;47.964;11.186;2023-07-22T05:47:05;7.63;;;2.28;;
75096;SDS011;63684;47.964;11.186;2023-07-22T05:49:30;3.20;;;2.20;;
75096;SDS011;63684;47.964;11.186;2023-07-22T05:51:57;2.10;;;1.90;;
75096;SDS011;63684;47.964;11.186;2023-07-22T05:54:23;2.33;;;2.08;;
75096;SDS011;63684;47.964;11.186;2023-07-22T05:56:48;4.57;;;2.07;;
75096;SDS011;63684;47.964;11.186;2023-07-22T05:59:15;1.98;;;1.80;;
75096;SDS011;63684;47.964;11.186;2023-07-22T06:01:40;5.68;;;2.17;;
75096;SDS011;63684;47.964;11.186;2023-07-22T06:04:06;3.05;;;2.05;;
75096;SDS011;63684;47.964;11.186;2023-07-22T06:06:32;2.75;;;2.10;;
75096;SDS011;63684;47.964;11.186;2023-07-22T06:08:57;3.72;;;2.22;;
75096;SDS011;63684;47.964;11.186;2023-07-22T06:11:23;2.45;;;1.90;;
75096;SDS011;63684;47.964;11.186;2023-07-22T06:13:49;2.20;;;2.00;;
75096;SDS011;63684;47.964;11.186;2023-07-22T06:16:14;2.80;;;1.92;;
75096;SDS011;63684;47.964;11.186;2023-07-22T06:18:40;3.15;;;1.67;;
75096;SDS011;63684;47.964;11.186;2023-07-22T06:21:05;2.22;;;2.00;;
75096;SDS011;63684;47.964;11.186;2023-07-22T06:23:31;2.45;;;1.98;;
75096;SDS011;63684;47.964;11.186;2023-07-22T06:25:56;1.88;;;1.58;;
75096;SDS011;63684;47.964;11.186;2023-07-22T06:28:22;2.65;;;1.95;;
75096;SDS011;63684;47.964;11.186;2023-07-22T06:30:47;2.70;;;2.00;;
75096;SDS011;63684;47.964;11.186;2023-07-22T06:33:14;2.10;;;1.90;;
75096;SDS011;63684;47.964;11.186;2023-07-22T06:35:39;3.28;;;2.03;;
75096;SDS011;63684;47.964;11.186;2023-07-22T06:38:05;3.33;;;2.15;;
75096;SDS011;63684;47.964;11.186;2023-07-22T06:40:32;3.30;;;2.10;;
75096;SDS011;63684;47.964;11.186;2023-07-22T06:42:58;1.80;;;1.70;;
75096;SDS011;63684;47.964;11.186;2023-07-22T06:45:23;2.45;;;1.98;;
75096;SDS011;63684;47.964;11.186;2023-07-22T06:47:49;4.40;;;2.22;;
75096;SDS011;63684;47.964;11.186;2023-07-22T06:50:15;3.65;;;2.38;;
75096;SDS011;63684;47.964;11.186;2023-07-22T06:52:40;2.65;;;2.20;;
75096;SDS011;63684;47.964;11.186;2023-07-22T06:55:06;2.60;;;2.03;;
75096;SDS011;63684;47.964;11.186;2023-07-22T06:57:32;2.40;;;2.20;;
75096;SDS011;63684;47.964;11.186;2023-07-22T06:59:58;6.28;;;2.17;;
75096;SDS011;63684;47.964;11.186;2023-07-22T07:02:24;2.92;;;2.00;;
75096;SDS011;63684;47.964;11.186;2023-07-22T07:04:51;4.10;;;2.25;;
75096;SDS011;63684;47.964;11.186;2023-07-22T07:07:16;1.83;;;1.73;;
75096;SDS011;63684;47.964;11.186;2023-07-22T07:09:42;4.70;;;1.90;;
75096;SDS011;63684;47.964;11.186;2023-07-22T07:12:07;5.55;;;2.22;;
75096;SDS011;63684;47.964;11.186;2023-07-22T07:14:33;2.13;;;1.42;;
75096;SDS011;63684;47.964;11.186;2023-07-22T07:16:59;1.95;;;1.65;;
75096;SDS011;63684;47.964;11.186;2023-07-22T07:19:26;3.50;;;2.00;;
75096;SDS011;63684;47.964;11.186;2023-07-22T07:21:51;3.08;;;1.85;;
75096;SDS011;63684;47.964;11.186;2023-07-22T07:24:18;2.75;;;1.83;;
75096;SDS011;63684;47.964;11.186;2023-07-22T07:26:44;2.40;;;1.63;;
75096;SDS011;63684;47.964;11.186;2023-07-22T07:29:10;2.00;;;1.60;;
75096;SDS011;63684;47.964;11.186;2023-07-22T07:31:36;2.38;;;2.00;;
75096;SDS011;63684;47.964;11.186;2023-07-22T07:34:02;2.17;;;1.85;;
75096;SDS011;63684;47.964;11.186;2023-07-22T07:36:28;2.35;;;1.80;;
75096;SDS011;63684;47.964;11.186;2023-07-22T07:38:54;3.58;;;2.00;;
75096;SDS011;63684;47.964;11.186;2023-07-22T07:41:20;4.53;;;2.08;;
75096;SDS011;63684;47.964;11.186;2023-07-22T07:43:46;1.88;;;1.60;;
75096;SDS011;63684;47.964;11.186;2023-07-22T07:46:13;2.10;;;1.65;;
75096;SDS011;63684;47.964;11.186;2023-07-22T07:48:46;3.08;;;1.67;;
75096;SDS011;63684;47.964;11.186;2023-07-22T07:51:16;2.53;;;1.58;;
75096;SDS011;63684;47.964;11.186;2023-07-22T07:53:43;3.85;;;1.80;;
75096;SDS011;63684;47.964;11.186;2023-07-22T07:56:10;2.75;;;1.65;;
75096;SDS011;63684;47.964;11.186;2023-07-22T07:58:37;1.98;;;1.50;;
75096;SDS011;63684;47.964;11.186;2023-07-22T08:01:03;3.22;;;1.98;;
75096;SDS011;63684;47.964;11.186;2023-07-22T08:03:28;1.40;;;1.30;;
75096;SDS011;63684;47.964;11.186;2023-07-22T08:05:55;4.18;;;1.73;;
75096;SDS011;63684;47.964;11.186;2023-07-22T08:08:21;2.67;;;1.50;;
75096;SDS011;63684;47.964;11.186;2023-07-22T08:10:47;2.42;;;1.50;;
75096;SDS011;63684;47.964;11.186;2023-07-22T08:13:13;2.47;;;1.65;;
75096;SDS011;63684;47.964;11.186;2023-07-22T08:15:39;2.65;;;1.60;;
75096;SDS011;63684;47.964;11.186;2023-07-22T08:18:07;1.63;;;1.52;;
75096;SDS011;63684;47.964;11.186;2023-07-22T08:20:32;1.95;;;1.50;;
75096;SDS011;63684;47.964;11.186;2023-07-22T08:22:58;1.55;;;1.40;;
75096;SDS011;63684;47.964;11.186;2023-07-22T08:25:23;3.15;;;1.40;;
75096;SDS011;63684;47.964;11.186;2023-07-22T08:27:49;2.33;;;1.50;;
75096;SDS011;63684;47.964;11.186;2023-07-22T08:30:14;4.15;;;1.45;;
75096;SDS011;63684;47.964;11.186;2023-07-22T08:32:40;1.95;;;1.60;;
75096;SDS011;63684;47.964;11.186;2023-07-22T08:35:05;3.13;;;1.80;;
75096;SDS011;63684;47.964;11.186;2023-07-22T08:37:32;2.25;;;1.70;;
75096;SDS011;63684;47.964;11.186;2023-07-22T08:39:58;3.55;;;1.70;;
75096;SDS011;63684;47.964;11.186;2023-07-22T08:42:23;2.33;;;2.13;;
75096;SDS011;63684;47.964;11.186;2023-07-22T08:44:49;2.67;;;1.67;;
75096;SDS011;63684;47.964;11.186;2023-07-22T08:47:21;1.95;;;1.75;;
75096;SDS011;63684;47.964;11.186;2023-07-22T08:49:49;8.95;;;1.65;;
75096;SDS011;63684;47.964;11.186;2023-07-22T08:52:16;1.77;;;1.67;;
75096;SDS011;63684;47.964;11.186;2023-07-22T08:54:43;2.65;;;1.98;;
75096;SDS011;63684;47.964;11.186;2023-07-22T08:57:10;2.28;;;1.80;;
75096;SDS011;63684;47.964;11.186;2023-07-22T08:59:37;2.92;;;1.70;;
75096;SDS011;63684;47.964;11.186;2023-07-22T09:02:03;5.05;;;1.33;;
75096;SDS011;63684;47.964;11.186;2023-07-22T09:04:29;2.13;;;1.40;;
75096;SDS011;63684;47.964;11.186;2023-07-22T09:06:54;2.08;;;1.67;;
75096;SDS011;63684;47.964;11.186;2023-07-22T09:09:21;2.78;;;1.80;;
75096;SDS011;63684;47.964;11.186;2023-07-22T09:11:48;1.60;;;1.30;;
75096;SDS011;63684;47.964;11.186;2023-07-22T09:14:13;3.53;;;2.10;;
75096;SDS011;63684;47.964;11.186;2023-07-22T09:16:40;1.50;;;1.40;;
75096;SDS011;63684;47.964;11.186;2023-07-22T09:19:06;1.98;;;1.48;;
75096;SDS011;63684;47.964;11.186;2023-07-22T09:21:32;1.80;;;1.40;;
75096;SDS011;63684;47.964;11.186;2023-07-22T09:24:00;2.45;;;1.80;;
75096;SDS011;63684;47.964;11.186;2023-07-22T09:26:26;2.88;;;1.60;;
75096;SDS011;63684;47.964;11.186;2023-07-22T09:28:55;5.63;;;1.70;;
75096;SDS011;63684;47.964;11.186;2023-07-22T09:31:22;1.73;;;1.30;;
75096;SDS011;63684;47.964;11.186;2023-07-22T09:33:51;2.22;;;1.40;;
75096;SDS011;63684;47.964;11.186;2023-07-22T09:36:19;5.07;;;1.48;;
75096;SDS011;63684;47.964;11.186;2023-07-22T09:39:02;2.03;;;1.60;;
75096;SDS011;63684;47.964;11.186;2023-07-22T09:41:28;3.05;;;1.25;;
75096;SDS011;63684;47.964;11.186;2023-07-22T09:43:57;3.13;;;1.75;;
75096;SDS011;63684;47.964;11.186;2023-07-22T09:46:30;2.85;;;1.50;;
75096;SDS011;63684;47.964;11.186;2023-07-22T09:48:59;3.30;;;1.67;;
75096;SDS011;63684;47.964;11.186;2023-07-22T09:51:32;3.65;;;2.03;;
75096;SDS011;63684;47.964;11.186;2023-07-22T09:53:59;2.92;;;1.42;;
75096;SDS011;63684;47.964;11.186;2023-07-22T09:56:25;2.05;;;1.70;;
75096;SDS011;63684;47.964;11.186;2023-07-22T09:58:51;1.92;;;1.58;;
75096;SDS011;63684;47.964;11.186;2023-07-22T10:01:19;3.38;;;1.85;;
75096;SDS011;63684;47.964;11.186;2023-07-22T10:03:47;4.15;;;1.70;;
75096;SDS011;63684;47.964;11.186;2023-07-22T10:06:13;4.35;;;1.58;;
75096;SDS011;63684;47.964;11.186;2023-07-22T10:08:40;2.15;;;1.50;;
75096;SDS011;63684;47.964;11.186;2023-07-22T10:11:08;3.08;;;1.83;;
75096;SDS011;63684;47.964;11.186;2023-07-22T10:13:34;6.43;;;1.40;;
75096;SDS011;63684;47.964;11.186;2023-07-22T10:16:00;1.70;;;1.52;;
75096;SDS011;63684;47.964;11.186;2023-07-22T10:18:28;3.08;;;1.65;;
75096;SDS011;63684;47.964;11.186;2023-07-22T10:20:54;1.50;;;1.40;;
75096;SDS011;63684;47.964;11.186;2023-07-22T10:23:22;2.83;;;1.17;;
75096;SDS011;63684;47.964;11.186;2023-07-22T10:25:49;1.50;;;1.33;;
75096;SDS011;63684;47.964;11.186;2023-07-22T10:28:15;2.55;;;1.33;;
75096;SDS011;63684;47.964;11.186;2023-07-22T10:30:43;2.50;;;1.48;;
75096;SDS011;63684;47.964;11.186;2023-07-22T10:33:09;2.90;;;1.67;;
75096;SDS011;63684;47.964;11.186;2023-07-22T10:35:40;1.80;;;1.55;;
75096;SDS011;63684;47.964;11.186;2023-07-22T10:38:11;3.65;;;1.58;;
75096;SDS011;63684;47.964;11.186;2023-07-22T10:40:51;3.33;;;1.63;;
75096;SDS011;63684;47.964;11.186;2023-07-22T10:43:19;3.65;;;1.55;;
75096;SDS011;63684;47.964;11.186;2023-07-22T10:45:58;1.65;;;1.17;;
75096;SDS011;63684;47.964;11.186;2023-07-22T10:48:33;2.08;;;1.52;;
75096;SDS011;63684;47.964;11.186;2023-07-22T10:51:07;2.83;;;1.50;;
75096;SDS011;63684;47.964;11.186;2023-07-22T10:53:43;2.05;;;1.23;;
75096;SDS011;63684;47.964;11.186;2023-07-22T11:06:51;4.15;;;1.38;;
75096;SDS011;63684;47.964;11.186;2023-07-22T11:14:23;3.25;;;1.50;;
75096;SDS011;63684;47.964;11.186;2023-07-22T11:16:49;1.95;;;1.42;;
75096;SDS011;63684;47.964;11.186;2023-07-22T11:19:16;2.03;;;1.50;;
75096;SDS011;63684;47.964;11.186;2023-07-22T11:21:44;2.67;;;1.30;;
75096;SDS011;63684;47.964;11.186;2023-07-22T11:24:10;2.97;;;1.77;;
75096;SDS011;63684;47.964;11.186;2023-07-22T11:26:35;2.55;;;1.65;;
75096;SDS011;63684;47.964;11.186;2023-07-22T11:29:02;2.55;;;1.50;;
75096;SDS011;63684;47.964;11.186;2023-07-22T11:31:30;1.35;;;1.25;;
75096;SDS011;63684;47.964;11.186;2023-07-22T11:33:59;2.10;;;1.40;;
75096;SDS011;63684;47.964;11.186;2023-07-22T11:36:26;2.40;;;1.40;;
75096;SDS011;63684;47.964;11.186;2023-07-22T11:38:52;2.15;;;1.30;;
75096;SDS011;63684;47.964;11.186;2023-07-22T11:41:17;1.95;;;1.25;;
75096;SDS011;63684;47.964;11.186;2023-07-22T11:43:43;2.53;;;1.67;;
75096;SDS011;63684;47.964;11.186;2023-07-22T11:46:09;2.28;;;1.30;;
75096;SDS011;63684;47.964;11.186;2023-07-22T11:48:35;3.60;;;1.55;;
75096;SDS011;63684;47.964;11.186;2023-07-22T11:51:00;1.83;;;1.40;;
75096;SDS011;63684;47.964;11.186;2023-07-22T11:53:26;2.63;;;1.70;;
75096;SDS011;63684;47.964;11.186;2023-07-22T11:55:54;1.92;;;1.50;;
75096;SDS011;63684;47.964;11.186;2023-07-22T11:58:24;2.05;;;1.60;;
75096;SDS011;63684;47.964;11.186;2023-07-22T12:01:06;1.75;;;1.35;;
75096;SDS011;63684;47.964;11.186;2023-07-22T12:03:33;3.60;;;1.65;;
75096;SDS011;63684;47.964;11.186;2023-07-22T12:06:08;1.60;;;1.45;;
75096;SDS011;63684;47.964;11.186;2023-07-22T12:08:34;2.60;;;1.70;;
75096;SDS011;63684;47.964;11.186;2023-07-22T12:11:01;2.33;;;1.60;;
75096;SDS011;63684;47.964;11.186;2023-07-22T12:13:27;2.65;;;1.48;;
75096;SDS011;63684;47.964;11.186;2023-07-22T12:16:02;2.90;;;1.75;;
75096;SDS011;63684;47.964;11.186;2023-07-22T12:18:45;1.58;;;1.48;;
75096;SDS011;63684;47.964;11.186;2023-07-22T12:21:12;3.60;;;1.55;;
75096;SDS011;63684;47.964;11.186;2023-07-22T12:23:39;1.98;;;1.40;;
75096;SDS011;63684;47.964;11.186;2023-07-22T12:26:06;3.78;;;1.60;;
75096;SDS011;63684;47.964;11.186;2023-07-22T12:28:32;1.45;;;1.25;;
75096;SDS011;63684;47.964;11.186;2023-07-22T12:30:59;3.25;;;1.80;;
75096;SDS011;63684;47.964;11.186;2023-07-22T12:33:25;2.63;;;1.70;;
75096;SDS011;63684;47.964;11.186;2023-07-22T12:35:55;2.58;;;1.70;;
75096;SDS011;63684;47.964;11.186;2023-07-22T12:38:21;1.63;;;1.52;;
75096;SDS011;63684;47.964;11.186;2023-07-22T12:40:48;2.08;;;1.58;;
75096;SDS011;63684;47.964;11.186;2023-07-22T12:43:14;1.63;;;1.52;;
75096;SDS011;63684;47.964;11.186;2023-07-22T12:45:39;4.70;;;1.98;;
75096;SDS011;63684;47.964;11.186;2023-07-22T12:48:05;3.22;;;1.73;;
75096;SDS011;63684;47.964;11.186;2023-07-22T12:50:31;3.25;;;1.88;;
75096;SDS011;63684;47.964;11.186;2023-07-22T12:52:58;3.72;;;1.95;;
75096;SDS011;63684;47.964;11.186;2023-07-22T12:55:24;2.38;;;1.60;;
75096;SDS011;63684;47.964;11.186;2023-07-22T12:57:50;2.53;;;2.05;;
75096;SDS011;63684;47.964;11.186;2023-07-22T13:00:16;1.85;;;1.65;;
75096;SDS011;63684;47.964;11.186;2023-07-22T13:02:42;3.70;;;1.85;;
75096;SDS011;63684;47.964;11.186;2023-07-22T13:05:08;2.88;;;2.03;;
75096;SDS011;63684;47.964;11.186;2023-07-22T13:07:34;5.28;;;2.10;;
75096;SDS011;63684;47.964;11.186;2023-07-22T13:10:00;1.95;;;1.70;;
75096;SDS011;63684;47.964;11.186;2023-07-22T13:12:36;4.25;;;1.70;;
75096;SDS011;63684;47.964;11.186;2023-07-22T13:15:03;1.75;;;1.58;;
75096;SDS011;63684;47.964;11.186;2023-07-22T13:17:29;2.40;;;1.83;;
75096;SDS011;63684;47.964;11.186;2023-07-22T13:19:56;2.80;;;1.58;;
75096;SDS011;63684;47.964;11.186;2023-07-22T13:22:21;1.80;;;1.63;;
75096;SDS011;63684;47.964;11.186;2023-07-22T13:24:47;1.92;;;1.77;;
75096;SDS011;63684;47.964;11.186;2023-07-22T13:27:12;3.58;;;1.85;;
75096;SDS011;63684;47.964;11.186;2023-07-22T13:29:38;4.75;;;1.77;;
75096;SDS011;63684;47.964;11.186;2023-07-22T13:32:04;3.33;;;1.65;;
75096;SDS011;63684;47.964;11.186;2023-07-22T13:34:31;1.70;;;1.60;;
75096;SDS011;63684;47.964;11.186;2023-07-22T13:36:57;1.73;;;1.48;;
75096;SDS011;63684;47.964;11.186;2023-07-22T13:39:22;2.05;;;1.75;;
75096;SDS011;63684;47.964;11.186;2023-07-22T13:41:47;1.95;;;1.58;;
75096;SDS011;63684;47.964;11.186;2023-07-22T13:44:13;2.15;;;1.73;;
75096;SDS011;63684;47.964;11.186;2023-07-22T13:46:39;3.05;;;1.80;;
75096;SDS011;63684;47.964;11.186;2023-07-22T13:49:04;2.67;;;1.67;;
75096;SDS011;63684;47.964;11.186;2023-07-22T13:51:30;1.83;;;1.70;;
75096;SDS011;63684;47.964;11.186;2023-07-22T13:53:55;2.42;;;1.85;;
75096;SDS011;63684;47.964;11.186;2023-07-22T13:56:22;2.95;;;1.70;;
75096;SDS011;63684;47.964;11.186;2023-07-22T13:58:48;2.55;;;1.70;;
75096;SDS011;63684;47.964;11.186;2023-07-22T14:01:13;4.75;;;2.00;;
75096;SDS011;63684;47.964;11.186;2023-07-22T14:03:41;2.95;;;1.92;;
75096;SDS011;63684;47.964;11.186;2023-07-22T14:06:07;2.42;;;1.63;;
75096;SDS011;63684;47.964;11.186;2023-07-22T14:08:33;2.25;;;1.92;;
75096;SDS011;63684;47.964;11.186;2023-07-22T14:10:59;2.30;;;1.70;;
75096;SDS011;63684;47.964;11.186;2023-07-22T14:13:25;2.50;;;2.10;;
75096;SDS011;63684;47.964;11.186;2023-07-22T14:15:51;2.80;;;2.28;;
75096;SDS011;63684;47.964;11.186;2023-07-22T14:18:17;2.30;;;2.08;;
75096;SDS011;63684;47.964;11.186;2023-07-22T14:20:44;4.88;;;2.10;;
75096;SDS011;63684;47.964;11.186;2023-07-22T14:23:10;3.38;;;1.80;;
75096;SDS011;63684;47.964;11.186;2023-07-22T14:25:36;3.50;;;2.47;;
75096;SDS011;63684;47.964;11.186;2023-07-22T14:28:03;2.75;;;1.80;;
75096;SDS011;63684;47.964;11.186;2023-07-22T14:30:29;3.40;;;2.13;;
75096;SDS011;63684;47.964;11.186;2023-07-22T14:32:54;2.08;;;1.67;;
75096;SDS011;63684;47.964;11.186;2023-07-22T14:35:21;3.78;;;1.90;;
75096;SDS011;63684;47.964;11.186;2023-07-22T14:37:47;1.80;;;1.70;;
75096;SDS011;63684;47.964;11.186;2023-07-22T14:40:12;1.88;;;1.70;;
75096;SDS011;63684;47.964;11.186;2023-07-22T14:42:38;2.92;;;2.10;;
75096;SDS011;63684;47.964;11.186;2023-07-22T14:45:05;3.63;;;1.98;;